< Typhoon 198001 1980 Season Typhoon 198003 >
Typhoon 198002 (DOM)
General InformationTrack Information on Google MapsDetailed Wind Information || Disaster Info.ResourceGoogle EarthGE AnimationAtom FeedGeoJSON
Detalied Best Track (Time Zone = UTC)
Year Month Day Hour Lat. Long. Pressure (hPa) Wind (kt) Class Image Chart
1980 5 7 18 8.3 142.8 1004 0 2 -- Chart
1980 5 8 00 8.3 142.4 1004 0 2 -- Chart
1980 5 8 06 8.2 141.9 1004 0 2 -- Chart
1980 5 8 12 8.1 141.4 1004 0 2 -- Chart
1980 5 8 18 7.9 140.8 1004 0 2 -- Chart
1980 5 9 00 7.8 140.1 1004 0 2 -- Chart
1980 5 9 06 8.0 138.5 1004 0 2 -- Chart
1980 5 9 12 8.5 137.8 1004 0 2 -- Chart
1980 5 9 18 9.2 136.8 1004 0 2 -- Chart
1980 5 10 00 10.0 135.8 1004 0 2 -- Chart
1980 5 10 06 10.3 134.7 1002 0 2 -- Chart
1980 5 10 12 11.2 133.3 1002 0 2 -- Chart
1980 5 10 18 11.4 132.3 1002 0 2 -- Chart
1980 5 11 00 11.7 131.4 998 0 2 -- Chart
1980 5 11 06 12.0 130.5 994 45 3 -- Chart
1980 5 11 12 12.4 129.3 992 45 3 -- Chart
1980 5 11 18 13.0 128.1 990 50 4 -- Chart
1980 5 12 00 13.6 126.7 985 50 4 -- Chart
1980 5 12 06 14.3 125.8 980 55 4 -- Chart
1980 5 12 12 14.8 125.0 975 60 4 -- Chart
1980 5 12 18 15.5 124.4 970 60 4 -- Chart
1980 5 13 00 16.0 124.0 965 70 5 -- Chart
1980 5 13 06 16.6 123.6 960 70 5 -- Chart
1980 5 13 12 16.9 123.3 960 85 5 -- Chart
1980 5 13 18 17.2 123.0 960 85 5 -- Chart
1980 5 14 00 17.4 122.8 965 70 5 -- Chart
1980 5 14 06 17.5 122.7 965 70 5 -- Chart
1980 5 14 12 17.6 122.6 980 70 5 -- Chart
1980 5 14 18 17.8 122.5 980 60 4 -- Chart
1980 5 15 00 18.0 122.5 985 55 4 -- Chart
1980 5 15 06 18.2 122.6 990 55 4 -- Chart
1980 5 15 12 18.6 122.7 985 55 4 -- Chart
1980 5 15 18 19.1 122.8 980 50 4 -- Chart
1980 5 16 00 19.5 122.9 980 50 4 -- Chart
1980 5 16 06 19.8 123.4 975 55 4 -- Chart
1980 5 16 12 20.1 124.0 975 55 4 -- Chart
1980 5 16 18 20.3 124.7 975 55 4 -- Chart
1980 5 17 00 20.5 125.3 980 65 5 -- Chart
1980 5 17 06 20.7 125.9 980 65 5 -- Chart
1980 5 17 12 20.9 126.5 980 60 4 -- Chart
1980 5 17 18 21.1 126.9 980 55 4 -- Chart
1980 5 18 00 21.0 127.0 980 55 4 -- Chart
1980 5 18 06 20.9 126.8 985 55 4 -- Chart
1980 5 18 12 20.8 126.6 985 50 4 -- Chart
1980 5 18 18 20.7 126.4 990 45 3 -- Chart
1980 5 19 00 20.7 126.2 990 40 3 -- Chart
1980 5 19 06 20.7 126.2 992 40 3 -- Chart
1980 5 19 12 20.8 126.2 994 40 3 -- Chart
1980 5 19 18 21.0 126.2 996 40 3 -- Chart
1980 5 20 00 21.3 126.2 998 35 3 -- Chart
1980 5 20 06 21.7 126.9 998 35 3 -- Chart
1980 5 20 12 22.3 127.8 1000 0 2 -- Chart
1980 5 20 18 23.0 128.8 1002 0 2 -- Chart
1980 5 21 00 24.0 131.0 1004 0 2 -- Chart
1980 5 21 06 25.0 133.0 1004 0 2 -- Chart
1980 5 21 12 26.0 135.0 1004 0 2 -- Chart
1980 5 21 18 27.0 137.0 1004 0 2 -- Chart
1980 5 22 00 28.0 139.5 1006 0 2 -- Chart
Japan Meteorological Agency Best Track Data | Correction Date : 1992-10-21
< Typhoon 198001 1980 Season Typhoon 198003 >

Help